sensor_id;sensor_type;location;lat;lon;timestamp;P1;durP1;ratioP1;P2;durP2;ratioP2
14584;SDS011;7379;51.506;11.876;2023-04-01T00:00:23;3.45;;;1.60;;
14584;SDS011;7379;51.506;11.876;2023-04-01T00:02:49;1.90;;;1.50;;
14584;SDS011;7379;51.506;11.876;2023-04-01T00:05:17;3.20;;;1.70;;
14584;SDS011;7379;51.506;11.876;2023-04-01T00:07:44;2.78;;;1.60;;
14584;SDS011;7379;51.506;11.876;2023-04-01T00:10:12;2.22;;;1.80;;
14584;SDS011;7379;51.506;11.876;2023-04-01T00:12:39;2.20;;;1.70;;
14584;SDS011;7379;51.506;11.876;2023-04-01T00:15:08;2.05;;;1.70;;
14584;SDS011;7379;51.506;11.876;2023-04-01T00:17:37;1.90;;;1.52;;
14584;SDS011;7379;51.506;11.876;2023-04-01T00:20:04;1.65;;;1.55;;
14584;SDS011;7379;51.506;11.876;2023-04-01T00:22:33;2.47;;;1.58;;
14584;SDS011;7379;51.506;11.876;2023-04-01T00:25:00;2.50;;;1.60;;
14584;SDS011;7379;51.506;11.876;2023-04-01T00:27:27;2.53;;;1.58;;
14584;SDS011;7379;51.506;11.876;2023-04-01T00:29:53;1.90;;;1.50;;
14584;SDS011;7379;51.506;11.876;2023-04-01T00:32:20;3.30;;;1.50;;
14584;SDS011;7379;51.506;11.876;2023-04-01T00:34:51;3.08;;;1.70;;
14584;SDS011;7379;51.506;11.876;2023-04-01T00:37:18;1.70;;;1.60;;
14584;SDS011;7379;51.506;11.876;2023-04-01T00:39:46;1.92;;;1.55;;
14584;SDS011;7379;51.506;11.876;2023-04-01T00:42:13;2.63;;;1.70;;
14584;SDS011;7379;51.506;11.876;2023-04-01T00:44:40;2.33;;;1.73;;
14584;SDS011;7379;51.506;11.876;2023-04-01T00:47:09;1.90;;;1.63;;
14584;SDS011;7379;51.506;11.876;2023-04-01T00:49:37;2.28;;;1.55;;
14584;SDS011;7379;51.506;11.876;2023-04-01T00:52:08;1.70;;;1.50;;
14584;SDS011;7379;51.506;11.876;2023-04-01T00:54:39;2.17;;;1.73;;
14584;SDS011;7379;51.506;11.876;2023-04-01T00:57:09;2.83;;;1.60;;
14584;SDS011;7379;51.506;11.876;2023-04-01T00:59:42;2.57;;;1.50;;
14584;SDS011;7379;51.506;11.876;2023-04-01T01:02:12;2.15;;;1.60;;
14584;SDS011;7379;51.506;11.876;2023-04-01T01:04:40;2.45;;;1.65;;
14584;SDS011;7379;51.506;11.876;2023-04-01T01:07:12;1.87;;;1.53;;
14584;SDS011;7379;51.506;11.876;2023-04-01T01:09:47;2.95;;;1.55;;
14584;SDS011;7379;51.506;11.876;2023-04-01T01:12:25;2.97;;;1.70;;
14584;SDS011;7379;51.506;11.876;2023-04-01T01:15:01;2.72;;;1.52;;
14584;SDS011;7379;51.506;11.876;2023-04-01T01:17:36;4.13;;;1.60;;
14584;SDS011;7379;51.506;11.876;2023-04-01T01:20:17;2.85;;;1.50;;
14584;SDS011;7379;51.506;11.876;2023-04-01T01:23:13;2.38;;;1.60;;
14584;SDS011;7379;51.506;11.876;2023-04-01T01:26:08;2.08;;;1.52;;
14584;SDS011;7379;51.506;11.876;2023-04-01T01:28:44;2.88;;;1.38;;
14584;SDS011;7379;51.506;11.876;2023-04-01T01:31:19;1.90;;;1.58;;
14584;SDS011;7379;51.506;11.876;2023-04-01T01:33:51;1.65;;;1.33;;
14584;SDS011;7379;51.506;11.876;2023-04-01T01:36:36;3.38;;;1.73;;
14584;SDS011;7379;51.506;11.876;2023-04-01T01:39:07;2.25;;;1.60;;
14584;SDS011;7379;51.506;11.876;2023-04-01T01:41:35;3.03;;;1.80;;
14584;SDS011;7379;51.506;11.876;2023-04-01T01:44:05;2.50;;;1.42;;
14584;SDS011;7379;51.506;11.876;2023-04-01T01:46:34;3.13;;;1.80;;
14584;SDS011;7379;51.506;11.876;2023-04-01T01:49:04;2.53;;;1.60;;
14584;SDS011;7379;51.506;11.876;2023-04-01T01:51:33;2.37;;;1.50;;
14584;SDS011;7379;51.506;11.876;2023-04-01T01:54:01;2.30;;;1.58;;
14584;SDS011;7379;51.506;11.876;2023-04-01T01:56:28;3.00;;;1.83;;
14584;SDS011;7379;51.506;11.876;2023-04-01T01:58:58;2.50;;;1.73;;
14584;SDS011;7379;51.506;11.876;2023-04-01T02:01:28;3.58;;;1.80;;
14584;SDS011;7379;51.506;11.876;2023-04-01T02:03:57;2.47;;;1.58;;
14584;SDS011;7379;51.506;11.876;2023-04-01T02:06:26;2.20;;;1.65;;
14584;SDS011;7379;51.506;11.876;2023-04-01T02:08:55;1.60;;;1.50;;
14584;SDS011;7379;51.506;11.876;2023-04-01T02:11:27;2.45;;;1.42;;
14584;SDS011;7379;51.506;11.876;2023-04-01T02:13:58;2.72;;;1.55;;
14584;SDS011;7379;51.506;11.876;2023-04-01T02:16:31;3.13;;;1.80;;
14584;SDS011;7379;51.506;11.876;2023-04-01T02:19:01;3.28;;;2.00;;
14584;SDS011;7379;51.506;11.876;2023-04-01T02:21:32;2.63;;;1.48;;
14584;SDS011;7379;51.506;11.876;2023-04-01T02:24:02;2.90;;;1.55;;
14584;SDS011;7379;51.506;11.876;2023-04-01T02:26:33;1.50;;;1.40;;
14584;SDS011;7379;51.506;11.876;2023-04-01T02:29:01;3.85;;;1.63;;
14584;SDS011;7379;51.506;11.876;2023-04-01T02:31:28;2.30;;;1.80;;
14584;SDS011;7379;51.506;11.876;2023-04-01T02:33:56;2.00;;;1.52;;
14584;SDS011;7379;51.506;11.876;2023-04-01T02:36:23;2.70;;;1.70;;
14584;SDS011;7379;51.506;11.876;2023-04-01T02:38:50;1.48;;;1.38;;
14584;SDS011;7379;51.506;11.876;2023-04-01T02:41:20;2.30;;;1.50;;
14584;SDS011;7379;51.506;11.876;2023-04-01T02:43:48;2.38;;;1.70;;
14584;SDS011;7379;51.506;11.876;2023-04-01T02:46:16;3.85;;;1.60;;
14584;SDS011;7379;51.506;11.876;2023-04-01T02:48:43;1.77;;;1.45;;
14584;SDS011;7379;51.506;11.876;2023-04-01T02:51:09;2.95;;;1.63;;
14584;SDS011;7379;51.506;11.876;2023-04-01T02:53:36;1.83;;;1.40;;
14584;SDS011;7379;51.506;11.876;2023-04-01T02:56:03;1.67;;;1.42;;
14584;SDS011;7379;51.506;11.876;2023-04-01T02:58:30;3.22;;;1.70;;
14584;SDS011;7379;51.506;11.876;2023-04-01T03:00:58;2.65;;;1.55;;
14584;SDS011;7379;51.506;11.876;2023-04-01T03:03:25;2.70;;;1.70;;
14584;SDS011;7379;51.506;11.876;2023-04-01T03:05:52;3.00;;;1.60;;
14584;SDS011;7379;51.506;11.876;2023-04-01T03:08:20;2.80;;;1.60;;
14584;SDS011;7379;51.506;11.876;2023-04-01T03:10:47;1.88;;;1.38;;
14584;SDS011;7379;51.506;11.876;2023-04-01T03:13:14;2.45;;;1.35;;
14584;SDS011;7379;51.506;11.876;2023-04-01T03:15:41;2.17;;;1.50;;
14584;SDS011;7379;51.506;11.876;2023-04-01T03:18:09;1.85;;;1.65;;
14584;SDS011;7379;51.506;11.876;2023-04-01T03:20:36;2.85;;;1.67;;
14584;SDS011;7379;51.506;11.876;2023-04-01T03:23:03;2.78;;;1.63;;
14584;SDS011;7379;51.506;11.876;2023-04-01T03:25:29;3.38;;;1.75;;
14584;SDS011;7379;51.506;11.876;2023-04-01T03:27:56;3.10;;;1.50;;
14584;SDS011;7379;51.506;11.876;2023-04-01T03:30:24;2.72;;;1.60;;
14584;SDS011;7379;51.506;11.876;2023-04-01T03:32:51;3.25;;;1.50;;
14584;SDS011;7379;51.506;11.876;2023-04-01T03:35:20;2.22;;;1.52;;
14584;SDS011;7379;51.506;11.876;2023-04-01T03:37:47;1.80;;;1.40;;
14584;SDS011;7379;51.506;11.876;2023-04-01T03:40:14;3.13;;;1.48;;
14584;SDS011;7379;51.506;11.876;2023-04-01T03:42:41;2.65;;;1.55;;
14584;SDS011;7379;51.506;11.876;2023-04-01T03:45:08;2.10;;;1.50;;
14584;SDS011;7379;51.506;11.876;2023-04-01T03:47:36;1.83;;;1.67;;
14584;SDS011;7379;51.506;11.876;2023-04-01T03:50:04;2.80;;;1.80;;
14584;SDS011;7379;51.506;11.876;2023-04-01T03:52:33;2.65;;;1.85;;
14584;SDS011;7379;51.506;11.876;2023-04-01T03:55:00;2.55;;;1.42;;
14584;SDS011;7379;51.506;11.876;2023-04-01T03:57:27;2.05;;;1.58;;
14584;SDS011;7379;51.506;11.876;2023-04-01T03:59:54;2.05;;;1.48;;
14584;SDS011;7379;51.506;11.876;2023-04-01T04:02:21;3.67;;;1.75;;
14584;SDS011;7379;51.506;11.876;2023-04-01T04:04:48;2.20;;;1.50;;
14584;SDS011;7379;51.506;11.876;2023-04-01T04:07:14;1.70;;;1.52;;
14584;SDS011;7379;51.506;11.876;2023-04-01T04:09:43;2.85;;;1.52;;
14584;SDS011;7379;51.506;11.876;2023-04-01T04:12:09;2.88;;;1.67;;
14584;SDS011;7379;51.506;11.876;2023-04-01T04:14:36;2.90;;;1.80;;
14584;SDS011;7379;51.506;11.876;2023-04-01T04:17:03;1.73;;;1.40;;
14584;SDS011;7379;51.506;11.876;2023-04-01T04:19:31;1.90;;;1.48;;
14584;SDS011;7379;51.506;11.876;2023-04-01T04:21:59;2.08;;;1.48;;
14584;SDS011;7379;51.506;11.876;2023-04-01T04:24:26;3.13;;;1.95;;
14584;SDS011;7379;51.506;11.876;2023-04-01T04:26:55;3.05;;;1.50;;
14584;SDS011;7379;51.506;11.876;2023-04-01T04:29:22;2.10;;;1.50;;
14584;SDS011;7379;51.506;11.876;2023-04-01T04:31:48;2.83;;;1.55;;
14584;SDS011;7379;51.506;11.876;2023-04-01T04:34:15;3.30;;;1.80;;
14584;SDS011;7379;51.506;11.876;2023-04-01T04:36:43;2.05;;;1.60;;
14584;SDS011;7379;51.506;11.876;2023-04-01T04:39:10;2.72;;;1.58;;
14584;SDS011;7379;51.506;11.876;2023-04-01T04:41:37;2.53;;;1.52;;
14584;SDS011;7379;51.506;11.876;2023-04-01T04:44:05;2.50;;;1.50;;
14584;SDS011;7379;51.506;11.876;2023-04-01T04:46:32;1.92;;;1.73;;
14584;SDS011;7379;51.506;11.876;2023-04-01T04:49:01;3.10;;;1.60;;
14584;SDS011;7379;51.506;11.876;2023-04-01T04:51:27;1.42;;;1.33;;
14584;SDS011;7379;51.506;11.876;2023-04-01T04:53:54;1.80;;;1.50;;
14584;SDS011;7379;51.506;11.876;2023-04-01T04:56:21;2.13;;;1.40;;
14584;SDS011;7379;51.506;11.876;2023-04-01T04:58:50;3.30;;;1.63;;
14584;SDS011;7379;51.506;11.876;2023-04-01T05:01:18;2.15;;;1.55;;
14584;SDS011;7379;51.506;11.876;2023-04-01T05:03:45;3.28;;;1.70;;
14584;SDS011;7379;51.506;11.876;2023-04-01T05:06:13;3.92;;;1.60;;
14584;SDS011;7379;51.506;11.876;2023-04-01T05:08:41;1.88;;;1.73;;
14584;SDS011;7379;51.506;11.876;2023-04-01T05:11:09;2.47;;;1.70;;
14584;SDS011;7379;51.506;11.876;2023-04-01T05:13:38;2.70;;;1.40;;
14584;SDS011;7379;51.506;11.876;2023-04-01T05:16:07;1.60;;;1.45;;
14584;SDS011;7379;51.506;11.876;2023-04-01T05:18:36;3.03;;;1.55;;
14584;SDS011;7379;51.506;11.876;2023-04-01T05:21:03;1.65;;;1.30;;
14584;SDS011;7379;51.506;11.876;2023-04-01T05:23:31;1.85;;;1.45;;
14584;SDS011;7379;51.506;11.876;2023-04-01T05:25:58;2.03;;;1.60;;
14584;SDS011;7379;51.506;11.876;2023-04-01T05:28:25;2.78;;;1.63;;
14584;SDS011;7379;51.506;11.876;2023-04-01T05:30:52;1.50;;;1.40;;
14584;SDS011;7379;51.506;11.876;2023-04-01T05:33:18;2.17;;;1.50;;
14584;SDS011;7379;51.506;11.876;2023-04-01T05:35:46;1.93;;;1.50;;
14584;SDS011;7379;51.506;11.876;2023-04-01T05:38:13;1.93;;;1.60;;
14584;SDS011;7379;51.506;11.876;2023-04-01T05:40:40;1.90;;;1.48;;
14584;SDS011;7379;51.506;11.876;2023-04-01T05:43:07;2.00;;;1.40;;
14584;SDS011;7379;51.506;11.876;2023-04-01T05:45:34;1.85;;;1.55;;
14584;SDS011;7379;51.506;11.876;2023-04-01T05:48:00;2.08;;;1.50;;
14584;SDS011;7379;51.506;11.876;2023-04-01T05:50:27;2.72;;;1.55;;
14584;SDS011;7379;51.506;11.876;2023-04-01T05:52:56;2.00;;;1.63;;
14584;SDS011;7379;51.506;11.876;2023-04-01T05:55:22;1.60;;;1.50;;
14584;SDS011;7379;51.506;11.876;2023-04-01T05:57:49;1.38;;;1.25;;
14584;SDS011;7379;51.506;11.876;2023-04-01T06:00:16;1.85;;;1.48;;
14584;SDS011;7379;51.506;11.876;2023-04-01T06:02:44;3.05;;;1.67;;
14584;SDS011;7379;51.506;11.876;2023-04-01T06:05:13;1.65;;;1.48;;
14584;SDS011;7379;51.506;11.876;2023-04-01T06:07:42;1.37;;;1.27;;
14584;SDS011;7379;51.506;11.876;2023-04-01T06:10:13;1.90;;;1.60;;
14584;SDS011;7379;51.506;11.876;2023-04-01T06:12:45;2.50;;;1.33;;
14584;SDS011;7379;51.506;11.876;2023-04-01T06:15:20;2.13;;;1.50;;
14584;SDS011;7379;51.506;11.876;2023-04-01T06:18:10;2.33;;;1.60;;
14584;SDS011;7379;51.506;11.876;2023-04-01T06:20:58;2.28;;;1.63;;
14584;SDS011;7379;51.506;11.876;2023-04-01T06:23:44;1.88;;;1.60;;
14584;SDS011;7379;51.506;11.876;2023-04-01T06:26:22;2.28;;;1.55;;
14584;SDS011;7379;51.506;11.876;2023-04-01T06:29:14;2.22;;;1.52;;
14584;SDS011;7379;51.506;11.876;2023-04-01T06:32:05;1.45;;;1.35;;
14584;SDS011;7379;51.506;11.876;2023-04-01T06:34:51;2.58;;;1.55;;
14584;SDS011;7379;51.506;11.876;2023-04-01T06:37:52;1.85;;;1.50;;
14584;SDS011;7379;51.506;11.876;2023-04-01T06:40:55;1.90;;;1.50;;
14584;SDS011;7379;51.506;11.876;2023-04-01T06:43:49;1.38;;;1.27;;
14584;SDS011;7379;51.506;11.876;2023-04-01T06:46:23;1.77;;;1.40;;
14584;SDS011;7379;51.506;11.876;2023-04-01T06:49:05;2.40;;;1.60;;
14584;SDS011;7379;51.506;11.876;2023-04-01T06:51:43;1.70;;;1.60;;
14584;SDS011;7379;51.506;11.876;2023-04-01T06:54:18;1.90;;;1.53;;
14584;SDS011;7379;51.506;11.876;2023-04-01T06:56:51;1.57;;;1.40;;
14584;SDS011;7379;51.506;11.876;2023-04-01T06:59:26;2.23;;;1.53;;
14584;SDS011;7379;51.506;11.876;2023-04-01T07:01:57;1.90;;;1.40;;
14584;SDS011;7379;51.506;11.876;2023-04-01T07:04:28;2.05;;;1.40;;
14584;SDS011;7379;51.506;11.876;2023-04-01T07:06:58;1.75;;;1.40;;
14584;SDS011;7379;51.506;11.876;2023-04-01T07:09:28;3.00;;;1.50;;
14584;SDS011;7379;51.506;11.876;2023-04-01T07:11:59;1.38;;;1.27;;
14584;SDS011;7379;51.506;11.876;2023-04-01T07:14:30;2.55;;;1.42;;
14584;SDS011;7379;51.506;11.876;2023-04-01T07:17:00;1.83;;;1.33;;
14584;SDS011;7379;51.506;11.876;2023-04-01T07:19:34;2.55;;;1.55;;
14584;SDS011;7379;51.506;11.876;2023-04-01T07:22:10;2.28;;;1.55;;
14584;SDS011;7379;51.506;11.876;2023-04-01T07:24:45;1.53;;;1.43;;
14584;SDS011;7379;51.506;11.876;2023-04-01T07:27:13;2.38;;;1.50;;
14584;SDS011;7379;51.506;11.876;2023-04-01T07:29:41;2.83;;;1.70;;
14584;SDS011;7379;51.506;11.876;2023-04-01T07:32:14;1.33;;;1.23;;
14584;SDS011;7379;51.506;11.876;2023-04-01T07:34:55;1.88;;;1.40;;
14584;SDS011;7379;51.506;11.876;2023-04-01T07:37:33;2.15;;;1.52;;
14584;SDS011;7379;51.506;11.876;2023-04-01T07:40:09;3.90;;;1.50;;
14584;SDS011;7379;51.506;11.876;2023-04-01T07:42:48;37.03;;;3.80;;
14584;SDS011;7379;51.506;11.876;2023-04-01T07:45:29;19.42;;;2.40;;
14584;SDS011;7379;51.506;11.876;2023-04-01T07:48:08;10.43;;;2.20;;
14584;SDS011;7379;51.506;11.876;2023-04-01T07:50:46;5.28;;;2.25;;
14584;SDS011;7379;51.506;11.876;2023-04-01T07:53:18;9.98;;;2.00;;
14584;SDS011;7379;51.506;11.876;2023-04-01T07:55:53;9.30;;;2.10;;
14584;SDS011;7379;51.506;11.876;2023-04-01T07:58:29;3.67;;;1.70;;
14584;SDS011;7379;51.506;11.876;2023-04-01T08:01:09;6.30;;;2.10;;
14584;SDS011;7379;51.506;11.876;2023-04-01T08:03:50;8.32;;;1.90;;
14584;SDS011;7379;51.506;11.876;2023-04-01T08:06:29;4.50;;;1.70;;
14584;SDS011;7379;51.506;11.876;2023-04-01T08:09:02;5.57;;;1.90;;
14584;SDS011;7379;51.506;11.876;2023-04-01T08:11:39;7.27;;;2.03;;
14584;SDS011;7379;51.506;11.876;2023-04-01T08:14:17;4.45;;;1.70;;
14584;SDS011;7379;51.506;11.876;2023-04-01T08:16:51;3.95;;;1.80;;
14584;SDS011;7379;51.506;11.876;2023-04-01T08:19:29;2.17;;;1.75;;
14584;SDS011;7379;51.506;11.876;2023-04-01T08:22:05;5.40;;;2.00;;
14584;SDS011;7379;51.506;11.876;2023-04-01T08:24:35;4.73;;;1.63;;
14584;SDS011;7379;51.506;11.876;2023-04-01T08:27:09;2.33;;;1.60;;
14584;SDS011;7379;51.506;11.876;2023-04-01T08:29:45;3.33;;;2.00;;
14584;SDS011;7379;51.506;11.876;2023-04-01T08:32:18;2.67;;;1.83;;
14584;SDS011;7379;51.506;11.876;2023-04-01T08:34:51;3.15;;;1.73;;
14584;SDS011;7379;51.506;11.876;2023-04-01T08:37:25;3.72;;;1.80;;
14584;SDS011;7379;51.506;11.876;2023-04-01T08:40:00;4.45;;;1.70;;
14584;SDS011;7379;51.506;11.876;2023-04-01T08:42:49;1.92;;;1.50;;
14584;SDS011;7379;51.506;11.876;2023-04-01T08:45:35;2.67;;;1.58;;
14584;SDS011;7379;51.506;11.876;2023-04-01T08:54:14;1.55;;;1.45;;
14584;SDS011;7379;51.506;11.876;2023-04-01T08:57:04;2.05;;;1.42;;
14584;SDS011;7379;51.506;11.876;2023-04-01T08:59:45;2.20;;;1.50;;
14584;SDS011;7379;51.506;11.876;2023-04-01T09:02:24;2.05;;;1.60;;
14584;SDS011;7379;51.506;11.876;2023-04-01T09:05:20;1.70;;;1.40;;
14584;SDS011;7379;51.506;11.876;2023-04-01T09:08:23;2.70;;;1.50;;
14584;SDS011;7379;51.506;11.876;2023-04-01T09:11:04;1.83;;;1.35;;
14584;SDS011;7379;51.506;11.876;2023-04-01T09:13:39;2.88;;;1.40;;
14584;SDS011;7379;51.506;11.876;2023-04-01T09:16:27;2.35;;;1.58;;
14584;SDS011;7379;51.506;11.876;2023-04-01T09:19:15;3.65;;;1.70;;
14584;SDS011;7379;51.506;11.876;2023-04-01T09:25:02;1.58;;;1.40;;
14584;SDS011;7379;51.506;11.876;2023-04-01T09:27:54;1.63;;;1.50;;
14584;SDS011;7379;51.506;11.876;2023-04-01T09:30:33;2.03;;;1.65;;
14584;SDS011;7379;51.506;11.876;2023-04-01T09:36:32;3.08;;;1.55;;
14584;SDS011;7379;51.506;11.876;2023-04-01T09:39:16;1.73;;;1.30;;
14584;SDS011;7379;51.506;11.876;2023-04-01T09:41:57;2.90;;;1.65;;
14584;SDS011;7379;51.506;11.876;2023-04-01T09:44:40;1.60;;;1.30;;
14584;SDS011;7379;51.506;11.876;2023-04-01T09:47:22;2.17;;;1.30;;
14584;SDS011;7379;51.506;11.876;2023-04-01T09:50:16;1.77;;;1.50;;
14584;SDS011;7379;51.506;11.876;2023-04-01T09:52:56;2.95;;;1.40;;
14584;SDS011;7379;51.506;11.876;2023-04-01T09:55:48;2.80;;;1.40;;
14584;SDS011;7379;51.506;11.876;2023-04-01T10:01:45;1.48;;;1.30;;
14584;SDS011;7379;51.506;11.876;2023-04-01T10:04:49;1.80;;;1.40;;
14584;SDS011;7379;51.506;11.876;2023-04-01T10:11:08;2.10;;;1.20;;
14584;SDS011;7379;51.506;11.876;2023-04-01T10:13:59;1.63;;;1.40;;
14584;SDS011;7379;51.506;11.876;2023-04-01T10:16:41;1.85;;;1.30;;
14584;SDS011;7379;51.506;11.876;2023-04-01T10:19:44;1.10;;;1.00;;
14584;SDS011;7379;51.506;11.876;2023-04-01T10:31:34;3.25;;;1.40;;
14584;SDS011;7379;51.506;11.876;2023-04-01T10:40:49;1.75;;;1.50;;
14584;SDS011;7379;51.506;11.876;2023-04-01T10:46:44;1.30;;;1.00;;
14584;SDS011;7379;51.506;11.876;2023-04-01T10:49:41;1.83;;;1.10;;
14584;SDS011;7379;51.506;11.876;2023-04-01T10:55:37;1.23;;;1.00;;
14584;SDS011;7379;51.506;11.876;2023-04-01T10:58:38;1.65;;;1.45;;
14584;SDS011;7379;51.506;11.876;2023-04-01T11:07:57;1.67;;;1.20;;
14584;SDS011;7379;51.506;11.876;2023-04-01T11:11:08;1.65;;;1.25;;
14584;SDS011;7379;51.506;11.876;2023-04-01T11:14:03;2.53;;;1.27;;
14584;SDS011;7379;51.506;11.876;2023-04-01T11:23:01;1.65;;;1.20;;
14584;SDS011;7379;51.506;11.876;2023-04-01T11:25:41;1.52;;;1.33;;
14584;SDS011;7379;51.506;11.876;2023-04-01T11:28:20;1.40;;;1.30;;
14584;SDS011;7379;51.506;11.876;2023-04-01T11:31:10;1.38;;;1.20;;
14584;SDS011;7379;51.506;11.876;2023-04-01T11:33:47;1.83;;;1.15;;
14584;SDS011;7379;51.506;11.876;2023-04-01T11:36:20;1.52;;;1.10;;
14584;SDS011;7379;51.506;11.876;2023-04-01T11:39:04;1.20;;;1.10;;
14584;SDS011;7379;51.506;11.876;2023-04-01T11:41:41;1.38;;;1.20;;
14584;SDS011;7379;51.506;11.876;2023-04-01T11:44:16;1.70;;;1.20;;
14584;SDS011;7379;51.506;11.876;2023-04-01T11:46:51;1.73;;;1.02;;
14584;SDS011;7379;51.506;11.876;2023-04-01T11:49:42;1.80;;;1.10;;
14584;SDS011;7379;51.506;11.876;2023-04-01T11:52:21;1.92;;;1.30;;
14584;SDS011;7379;51.506;11.876;2023-04-01T11:58:21;1.17;;;1.08;;
14584;SDS011;7379;51.506;11.876;2023-04-01T12:01:10;1.42;;;1.00;;
14584;SDS011;7379;51.506;11.876;2023-04-01T12:03:50;1.13;;;1.05;;
14584;SDS011;7379;51.506;11.876;2023-04-01T12:06:33;1.95;;;1.20;;
14584;SDS011;7379;51.506;11.876;2023-04-01T12:09:12;1.77;;;1.30;;
14584;SDS011;7379;51.506;11.876;2023-04-01T12:11:48;1.55;;;1.13;;
14584;SDS011;7379;51.506;11.876;2023-04-01T12:14:25;1.90;;;1.13;;
14584;SDS011;7379;51.506;11.876;2023-04-01T12:17:02;2.70;;;1.20;;
14584;SDS011;7379;51.506;11.876;2023-04-01T12:19:37;1.73;;;1.13;;
14584;SDS011;7379;51.506;11.876;2023-04-01T12:22:16;1.40;;;1.20;;
14584;SDS011;7379;51.506;11.876;2023-04-01T12:24:56;1.08;;;0.88;;
14584;SDS011;7379;51.506;11.876;2023-04-01T12:27:41;1.55;;;1.08;;
14584;SDS011;7379;51.506;11.876;2023-04-01T12:30:28;1.42;;;1.00;;
14584;SDS011;7379;51.506;11.876;2023-04-01T12:33:13;1.27;;;1.08;;
14584;SDS011;7379;51.506;11.876;2023-04-01T12:36:00;1.20;;;1.10;;
14584;SDS011;7379;51.506;11.876;2023-04-01T12:38:43;1.00;;;0.90;;
14584;SDS011;7379;51.506;11.876;2023-04-01T12:41:19;1.63;;;1.00;;
14584;SDS011;7379;51.506;11.876;2023-04-01T12:44:08;1.27;;;0.90;;
14584;SDS011;7379;51.506;11.876;2023-04-01T12:49:49;1.23;;;1.00;;
14584;SDS011;7379;51.506;11.876;2023-04-01T12:52:36;0.90;;;0.90;;
14584;SDS011;7379;51.506;11.876;2023-04-01T13:01:25;1.08;;;0.90;;
14584;SDS011;7379;51.506;11.876;2023-04-01T13:04:01;1.25;;;0.98;;
14584;SDS011;7379;51.506;11.876;2023-04-01T13:06:54;1.00;;;1.00;;
14584;SDS011;7379;51.506;11.876;2023-04-01T13:09:40;0.80;;;0.80;;
14584;SDS011;7379;51.506;11.876;2023-04-01T13:12:27;1.20;;;1.10;;
14584;SDS011;7379;51.506;11.876;2023-04-01T13:15:07;1.40;;;1.30;;
14584;SDS011;7379;51.506;11.876;2023-04-01T13:17:48;1.00;;;1.00;;
14584;SDS011;7379;51.506;11.876;2023-04-01T13:20:22;2.17;;;1.30;;
14584;SDS011;7379;51.506;11.876;2023-04-01T13:22:58;1.10;;;1.00;;
14584;SDS011;7379;51.506;11.876;2023-04-01T13:25:35;1.55;;;1.20;;
14584;SDS011;7379;51.506;11.876;2023-04-01T13:28:09;1.67;;;1.30;;
14584;SDS011;7379;51.506;11.876;2023-04-01T13:30:43;1.48;;;1.23;;
14584;SDS011;7379;51.506;11.876;2023-04-01T13:33:21;1.30;;;1.20;;
14584;SDS011;7379;51.506;11.876;2023-04-01T13:35:56;1.40;;;1.30;;
14584;SDS011;7379;51.506;11.876;2023-04-01T13:38:42;2.38;;;1.42;;
14584;SDS011;7379;51.506;11.876;2023-04-01T13:41:25;1.40;;;1.20;;
14584;SDS011;7379;51.506;11.876;2023-04-01T13:44:09;1.75;;;1.40;;
14584;SDS011;7379;51.506;11.876;2023-04-01T13:46:54;0.98;;;0.98;;
14584;SDS011;7379;51.506;11.876;2023-04-01T13:49:41;1.05;;;1.02;;
14584;SDS011;7379;51.506;11.876;2023-04-01T13:52:25;1.40;;;1.30;;
14584;SDS011;7379;51.506;11.876;2023-04-01T13:55:19;1.50;;;1.25;;
14584;SDS011;7379;51.506;11.876;2023-04-01T13:57:57;1.38;;;1.25;;
14584;SDS011;7379;51.506;11.876;2023-04-01T14:00:43;1.10;;;1.10;;
14584;SDS011;7379;51.506;11.876;2023-04-01T14:09:20;1.17;;;1.10;;
14584;SDS011;7379;51.506;11.876;2023-04-01T14:12:00;1.80;;;1.13;;
14584;SDS011;7379;51.506;11.876;2023-04-01T14:14:38;1.20;;;1.10;;
14584;SDS011;7379;51.506;11.876;2023-04-01T14:17:20;1.70;;;1.40;;
14584;SDS011;7379;51.506;11.876;2023-04-01T14:22:52;1.75;;;1.50;;
14584;SDS011;7379;51.506;11.876;2023-04-01T14:25:47;2.95;;;1.63;;
14584;SDS011;7379;51.506;11.876;2023-04-01T14:28:25;1.33;;;1.23;;
14584;SDS011;7379;51.506;11.876;2023-04-01T14:31:15;2.00;;;1.60;;
14584;SDS011;7379;51.506;11.876;2023-04-01T14:33:57;1.60;;;1.50;;
14584;SDS011;7379;51.506;11.876;2023-04-01T14:36:36;1.40;;;1.30;;
14584;SDS011;7379;51.506;11.876;2023-04-01T14:39:26;1.60;;;1.40;;
14584;SDS011;7379;51.506;11.876;2023-04-01T14:42:18;1.60;;;1.50;;
14584;SDS011;7379;51.506;11.876;2023-04-01T14:45:12;1.52;;;1.42;;
14584;SDS011;7379;51.506;11.876;2023-04-01T14:47:58;1.35;;;1.25;;
14584;SDS011;7379;51.506;11.876;2023-04-01T14:50:40;2.35;;;1.40;;
14584;SDS011;7379;51.506;11.876;2023-04-01T14:53:11;1.40;;;1.30;;
14584;SDS011;7379;51.506;11.876;2023-04-01T14:55:51;3.13;;;1.33;;
14584;SDS011;7379;51.506;11.876;2023-04-01T14:58:19;1.63;;;1.38;;
14584;SDS011;7379;51.506;11.876;2023-04-01T15:00:53;1.75;;;1.60;;
14584;SDS011;7379;51.506;11.876;2023-04-01T15:03:26;1.50;;;1.40;;
14584;SDS011;7379;51.506;11.876;2023-04-01T15:06:08;1.55;;;1.45;;
14584;SDS011;7379;51.506;11.876;2023-04-01T15:08:54;2.05;;;1.63;;
14584;SDS011;7379;51.506;11.876;2023-04-01T15:11:29;1.50;;;1.40;;
14584;SDS011;7379;51.506;11.876;2023-04-01T15:14:11;1.50;;;1.38;;
14584;SDS011;7379;51.506;11.876;2023-04-01T15:16:55;1.60;;;1.50;;
14584;SDS011;7379;51.506;11.876;2023-04-01T15:19:34;1.77;;;1.42;;
14584;SDS011;7379;51.506;11.876;2023-04-01T15:22:25;1.40;;;1.30;;
14584;SDS011;7379;51.506;11.876;2023-04-01T15:25:14;1.20;;;1.10;;
14584;SDS011;7379;51.506;11.876;2023-04-01T15:27:54;1.50;;;1.40;;
14584;SDS011;7379;51.506;11.876;2023-04-01T15:30:33;1.98;;;1.75;;
14584;SDS011;7379;51.506;11.876;2023-04-01T15:35:57;2.00;;;1.50;;
14584;SDS011;7379;51.506;11.876;2023-04-01T15:38:34;2.03;;;1.60;;
14584;SDS011;7379;51.506;11.876;2023-04-01T15:41:09;1.50;;;1.40;;
14584;SDS011;7379;51.506;11.876;2023-04-01T15:43:42;1.73;;;1.60;;
14584;SDS011;7379;51.506;11.876;2023-04-01T15:46:16;2.20;;;1.55;;
14584;SDS011;7379;51.506;11.876;2023-04-01T15:49:03;1.48;;;1.38;;
14584;SDS011;7379;51.506;11.876;2023-04-01T15:54:39;2.03;;;1.65;;
14584;SDS011;7379;51.506;11.876;2023-04-01T15:57:20;1.42;;;1.33;;
14584;SDS011;7379;51.506;11.876;2023-04-01T15:59:55;1.60;;;1.50;;
14584;SDS011;7379;51.506;11.876;2023-04-01T16:02:43;1.50;;;1.40;;
14584;SDS011;7379;51.506;11.876;2023-04-01T16:08:15;1.60;;;1.50;;
14584;SDS011;7379;51.506;11.876;2023-04-01T16:11:00;1.88;;;1.40;;
14584;SDS011;7379;51.506;11.876;2023-04-01T16:13:45;1.40;;;1.30;;
14584;SDS011;7379;51.506;11.876;2023-04-01T16:16:21;2.05;;;1.50;;
14584;SDS011;7379;51.506;11.876;2023-04-01T16:19:07;1.50;;;1.40;;
14584;SDS011;7379;51.506;11.876;2023-04-01T16:21:48;1.70;;;1.50;;
14584;SDS011;7379;51.506;11.876;2023-04-01T16:24:20;1.88;;;1.55;;
14584;SDS011;7379;51.506;11.876;2023-04-01T16:26:58;1.77;;;1.63;;
14584;SDS011;7379;51.506;11.876;2023-04-01T16:29:32;1.70;;;1.60;;
14584;SDS011;7379;51.506;11.876;2023-04-01T16:32:11;1.75;;;1.60;;
14584;SDS011;7379;51.506;11.876;2023-04-01T16:34:44;1.83;;;1.60;;
14584;SDS011;7379;51.506;11.876;2023-04-01T16:37:21;1.95;;;1.77;;
14584;SDS011;7379;51.506;11.876;2023-04-01T16:40:01;1.73;;;1.63;;
14584;SDS011;7379;51.506;11.876;2023-04-01T16:42:40;1.90;;;1.70;;
14584;SDS011;7379;51.506;11.876;2023-04-01T16:45:18;1.88;;;1.63;;
14584;SDS011;7379;51.506;11.876;2023-04-01T16:47:53;2.25;;;1.75;;
14584;SDS011;7379;51.506;11.876;2023-04-01T16:50:23;1.60;;;1.50;;
14584;SDS011;7379;51.506;11.876;2023-04-01T16:52:58;1.92;;;1.65;;
14584;SDS011;7379;51.506;11.876;2023-04-01T16:55:35;2.63;;;2.00;;
14584;SDS011;7379;51.506;11.876;2023-04-01T16:58:18;3.22;;;2.45;;
14584;SDS011;7379;51.506;11.876;2023-04-01T17:00:50;3.17;;;2.50;;
14584;SDS011;7379;51.506;11.876;2023-04-01T17:03:20;2.72;;;2.22;;